createdAt,value
2023-04-03T03:41:30.575Z,100396.37
2023-04-03T03:44:34.024Z,100396.37
2023-04-03T03:47:36.686Z,100387.06
2023-04-03T03:50:39.355Z,100396.56
2023-04-03T03:53:41.806Z,100387.13
2023-04-03T03:56:44.673Z,100391.50
2023-04-03T03:59:48.495Z,100392.47
2023-04-03T04:02:53.493Z,100394.84
2023-04-03T04:05:59.372Z,100390.41
2023-04-03T04:09:02.742Z,100380.25
2023-04-03T04:12:06.981Z,100388.28
2023-04-03T04:15:11.593Z,100394.97
2023-04-03T04:18:14.453Z,100388.94
2023-04-03T04:21:17.389Z,100395.94
2023-04-03T04:24:20.805Z,100392.47
2023-04-03T04:27:26.246Z,100401.94
2023-04-03T04:30:29.445Z,100406.97
2023-04-03T04:33:32.196Z,100409.59
2023-04-03T04:36:36.901Z,100408.66
2023-04-03T04:39:39.750Z,100408.12
2023-04-03T04:42:43.302Z,100407.22
2023-04-03T04:45:46.112Z,100410.03
2023-04-03T04:48:50.178Z,100412.41
2023-04-03T04:51:53.044Z,100413.59
2023-04-03T04:54:56.525Z,100417.66
2023-04-03T04:57:59.153Z,100411.56
2023-04-03T05:01:09.214Z,100417.50
2023-04-03T05:04:14.855Z,100431.19
2023-04-03T05:07:18.838Z,100427.59
2023-04-03T05:10:22.555Z,100426.66
2023-04-03T05:13:25.424Z,100426.53
2023-04-03T05:16:28.105Z,100429.38
2023-04-03T05:19:31.866Z,100435.34
2023-04-03T05:22:34.562Z,100427.31
2023-04-03T05:25:39.544Z,100430.63
2023-04-03T05:28:42.607Z,100428.84
2023-04-03T05:31:45.903Z,100423.78
2023-04-03T05:34:48.903Z,100424.28
2023-04-03T05:37:52.159Z,100424.19
2023-04-03T05:40:54.741Z,100425.56
2023-04-03T05:43:57.637Z,100417.63
2023-04-03T05:47:00.338Z,100421.09
2023-04-03T05:50:04.123Z,100420.37
2023-04-03T05:53:06.841Z,100429.00
2023-04-03T05:56:09.464Z,100432.69
2023-04-03T05:59:13.847Z,100436.56
2023-04-03T06:02:24.031Z,100442.62
2023-04-03T06:05:26.762Z,100448.47
2023-04-03T06:08:29.263Z,100448.34
2023-04-03T06:11:33.683Z,100450.28
2023-04-03T06:14:36.804Z,100444.22
2023-04-03T06:17:39.683Z,100445.00
2023-04-03T06:20:42.675Z,100462.44
2023-04-03T06:23:46.018Z,100460.13
2023-04-03T06:26:48.543Z,100466.59
2023-04-03T06:29:51.435Z,100460.97
2023-04-03T06:32:53.776Z,100456.78
2023-04-03T06:36:00.345Z,100464.16
2023-04-03T06:39:04.393Z,100464.53
2023-04-03T06:42:07.098Z,100457.25
2023-04-03T06:45:12.415Z,100465.00
2023-04-03T06:48:15.473Z,100460.34
2023-04-03T06:51:20.864Z,100461.81
2023-04-03T06:54:24.340Z,100470.53
2023-04-03T06:57:27.394Z,100473.97
2023-04-03T07:00:31.179Z,100485.56
2023-04-03T07:03:34.533Z,100482.91
2023-04-03T07:06:38.233Z,100488.25
2023-04-03T07:09:41.561Z,100490.22
2023-04-03T07:12:45.634Z,100490.00
2023-04-03T07:15:48.038Z,100491.66
2023-04-03T07:18:51.226Z,100494.84
2023-04-03T07:21:53.576Z,100495.41
2023-04-03T07:24:56.345Z,100488.75
2023-04-03T07:27:58.884Z,100506.06
2023-04-03T07:31:14.206Z,100500.84
2023-04-03T07:34:16.869Z,100499.22
2023-04-03T07:37:19.765Z,100500.44
2023-04-03T07:40:22.374Z,100504.91
2023-04-03T07:43:25.951Z,100506.94
2023-04-03T07:46:28.726Z,100501.87
2023-04-03T07:49:32.329Z,100511.78
2023-04-03T07:52:34.711Z,100516.69
2023-04-03T07:55:43.786Z,100512.59
2023-04-03T07:58:46.435Z,100517.56
2023-04-03T08:01:49.136Z,100515.25
2023-04-03T08:04:52.103Z,100519.81
2023-04-03T08:07:54.822Z,100524.22
2023-04-03T08:10:59.376Z,100525.19
2023-04-03T08:14:02.649Z,100527.50
2023-04-03T08:17:06.005Z,100518.78
2023-04-03T08:20:09.233Z,100525.47
2023-04-03T08:23:12.601Z,100525.91
2023-04-03T08:26:18.008Z,100529.50
2023-04-03T08:29:22.043Z,100525.00
2023-04-03T08:32:24.324Z,100537.50
2023-04-03T08:35:27.247Z,100534.03
2023-04-03T08:38:29.674Z,100537.72
2023-04-03T08:41:43.291Z,100530.97
2023-04-03T08:44:59.677Z,100529.25
2023-04-03T08:48:19.093Z,100527.72
2023-04-03T08:51:23.037Z,100533.78
2023-04-03T08:54:38.296Z,100528.63
2023-04-03T08:57:45.361Z,100524.84
2023-04-03T09:00:52.827Z,100527.72
2023-04-03T09:03:55.929Z,100524.06
2023-04-03T09:07:11.465Z,100527.34
2023-04-03T09:10:15.689Z,100527.81
2023-04-03T09:13:39.469Z,100530.25
2023-04-03T09:16:54.189Z,100533.16
2023-04-03T09:20:07.263Z,100533.75
2023-04-03T09:23:35.008Z,100543.19
2023-04-03T09:26:45.779Z,100534.06
2023-04-03T09:29:50.613Z,100541.78
2023-04-03T09:32:55.766Z,100542.34
2023-04-03T09:35:58.544Z,100538.25
2023-04-03T09:39:06.875Z,100534.34
2023-04-03T09:42:23.556Z,100545.13
2023-04-03T09:45:32.899Z,100533.38
2023-04-03T09:48:35.569Z,100535.19
2023-04-03T09:51:39.109Z,100532.44
2023-04-03T09:54:42.124Z,100535.50
2023-04-03T09:57:46.912Z,100520.28
2023-04-03T10:00:59.680Z,100528.91
2023-04-03T10:04:20.654Z,100515.56
2023-04-03T10:07:36.022Z,100515.72
2023-04-03T10:10:39.386Z,100528.19
2023-04-03T10:14:00.501Z,100519.38
2023-04-03T10:17:21.452Z,100520.31
2023-04-03T10:20:47.915Z,100523.03
2023-04-03T10:24:11.777Z,100524.50
2023-04-03T10:27:33.104Z,100528.87
2023-04-03T10:30:54.526Z,100526.50
2023-04-03T10:34:07.733Z,100529.75
2023-04-03T10:37:30.921Z,100535.44
2023-04-03T10:40:45.102Z,100528.03
2023-04-03T10:43:54.187Z,100524.97
2023-04-03T10:47:14.244Z,100520.66
2023-04-03T10:50:36.428Z,100524.34
2023-04-03T10:53:58.296Z,100522.94
2023-04-03T10:57:12.590Z,100524.06
2023-04-03T11:00:42.893Z,100518.69
2023-04-03T11:03:53.791Z,100520.47
2023-04-03T11:07:32.692Z,100523.16
2023-04-03T11:10:42.350Z,100518.53
2023-04-03T11:13:58.751Z,100517.53
2023-04-03T11:17:19.765Z,100515.34
2023-04-03T11:20:28.715Z,100514.59
2023-04-03T11:23:49.383Z,100514.44
2023-04-03T11:26:54.834Z,100509.97
2023-04-03T11:29:58.509Z,100506.72
2023-04-03T11:33:15.033Z,100502.47
2023-04-03T11:36:53.718Z,100491.47
2023-04-03T11:39:59.497Z,100486.59
2023-04-03T11:43:22.572Z,100482.69
2023-04-03T11:46:57.177Z,100484.37
2023-04-03T11:50:05.297Z,100485.53
2023-04-03T11:53:08.294Z,100482.38
2023-04-03T11:56:29.105Z,100486.06
2023-04-03T11:59:38.452Z,100490.38
2023-04-03T12:02:53.697Z,100490.97
2023-04-03T12:06:06.646Z,100491.63
2023-04-03T12:09:27.843Z,100483.31
2023-04-03T12:12:32.011Z,100477.87
2023-04-03T12:15:37.771Z,100475.38
2023-04-03T12:18:50.257Z,100480.25
2023-04-03T12:21:57.872Z,100478.75
2023-04-03T12:25:40.329Z,100473.81
2023-04-03T12:28:44.398Z,100470.22
2023-04-03T12:32:05.424Z,100465.28
2023-04-03T12:35:29.394Z,100471.34
2023-04-03T12:39:12.200Z,100469.25
2023-04-03T12:42:57.996Z,100474.37
2023-04-03T12:46:10.843Z,100469.03
2023-04-03T12:49:25.584Z,100458.59
2023-04-03T12:52:47.064Z,100462.03
2023-04-03T12:55:54.827Z,100459.81
2023-04-03T12:59:20.632Z,100454.97
2023-04-03T13:02:26.450Z,100450.56
2023-04-03T13:05:29.392Z,100449.03
2023-04-03T13:08:32.581Z,100447.81
2023-04-03T13:11:37.317Z,100442.81
2023-04-03T13:14:39.996Z,100440.25
2023-04-03T13:17:43.794Z,100434.03
2023-04-03T13:20:49.117Z,100438.91
2023-04-03T13:24:07.211Z,100430.16
2023-04-03T13:27:17.865Z,100421.38
2023-04-03T13:30:31.227Z,100427.75
2023-04-03T13:33:38.808Z,100418.53
2023-04-03T13:36:46.244Z,100423.34
2023-04-03T13:40:00.035Z,100424.44
2023-04-03T13:43:18.680Z,100421.78
2023-04-03T13:46:23.882Z,100425.25
2023-04-03T13:49:54.120Z,100424.00
2023-04-03T13:53:03.555Z,100424.78
2023-04-03T13:56:14.986Z,100418.22
2023-04-03T13:59:17.438Z,100408.84
2023-04-03T14:02:40.495Z,100405.28
2023-04-03T14:05:43.306Z,100407.59
2023-04-03T14:08:47.161Z,100398.88
2023-04-03T14:11:53.377Z,100396.34
2023-04-03T14:14:56.820Z,100402.28
2023-04-03T14:18:01.292Z,100402.06
2023-04-03T14:21:05.484Z,100399.25
2023-04-03T14:24:08.259Z,100395.34
2023-04-03T14:27:35.925Z,100396.87
2023-04-03T14:30:39.308Z,100388.56
2023-04-03T14:33:42.223Z,100396.72
2023-04-03T14:36:45.642Z,100399.50
2023-04-03T14:39:49.228Z,100393.63
2023-04-03T14:42:52.342Z,100401.66
2023-04-03T14:45:54.713Z,100399.31
2023-04-03T14:48:57.500Z,100400.66
2023-04-03T14:52:00.480Z,100401.88
2023-04-03T14:55:06.731Z,100404.13
2023-04-03T14:58:14.504Z,100401.59
2023-04-03T15:01:18.431Z,100405.59
2023-04-03T15:04:21.935Z,100402.13
2023-04-03T15:07:27.484Z,100404.31
2023-04-03T15:10:32.011Z,100397.94
2023-04-03T15:13:34.691Z,100404.75
2023-04-03T15:29:42.264Z,100407.72
2023-04-03T15:32:45.365Z,100403.50
2023-04-03T15:35:48.859Z,100388.75
2023-04-03T15:38:51.750Z,100393.03
2023-04-03T15:41:55.287Z,100400.41
2023-04-03T15:44:57.942Z,100400.91
2023-04-03T15:48:00.700Z,100400.97
